createdAt,value
2018-08-08T00:04:42.094Z,10.28
2018-08-08T00:10:11.691Z,9.80
2018-08-08T00:15:40.989Z,11.75
2018-08-08T00:21:10.349Z,9.33
2018-08-08T00:26:39.751Z,10.10
2018-08-08T00:32:09.152Z,10.53
2018-08-08T00:37:38.808Z,10.48
2018-08-08T00:43:09.281Z,10.18
2018-08-08T00:48:40.344Z,10.08
2018-08-08T00:54:09.930Z,10.48
2018-08-08T00:59:39.224Z,9.95
2018-08-08T01:05:11.243Z,14.20
2018-08-08T01:10:40.559Z,13.58
2018-08-08T01:16:09.881Z,15.80
2018-08-08T01:21:39.767Z,11.68
2018-08-08T01:27:09.083Z,9.38
2018-08-08T01:32:38.364Z,9.78
2018-08-08T01:38:07.649Z,9.57
2018-08-08T01:43:37.043Z,8.40
2018-08-08T01:49:06.323Z,9.28
2018-08-08T01:54:36.652Z,8.85
2018-08-08T02:00:09.320Z,9.80
2018-08-08T02:05:38.575Z,8.15
2018-08-08T02:11:07.968Z,8.37
2018-08-08T02:16:37.330Z,8.70
2018-08-08T02:22:06.547Z,8.63
2018-08-08T02:27:36.290Z,8.85
2018-08-08T02:33:06.312Z,9.15
2018-08-08T02:38:35.615Z,9.20
2018-08-08T02:44:04.925Z,9.30
2018-08-08T02:49:34.186Z,9.45
2018-08-08T02:55:03.476Z,9.60
2018-08-08T03:00:32.694Z,8.78
2018-08-08T03:06:02.015Z,8.50
2018-08-08T03:11:31.716Z,9.28
2018-08-08T03:17:01.871Z,8.98
2018-08-08T03:22:31.173Z,8.63
2018-08-08T03:28:01.377Z,7.97
2018-08-08T03:33:32.719Z,8.23
2018-08-08T03:39:02.752Z,9.20
2018-08-08T03:44:32.028Z,9.25
2018-08-08T03:50:02.432Z,10.60
2018-08-08T03:55:31.846Z,11.03
2018-08-08T04:01:01.170Z,9.30
2018-08-08T04:06:30.524Z,10.45
2018-08-08T04:12:41.639Z,11.10
2018-08-08T04:18:10.939Z,10.90
2018-08-08T04:23:40.238Z,12.30
2018-08-08T04:29:09.502Z,10.40
2018-08-08T04:34:39.861Z,9.20
2018-08-08T04:40:14.852Z,9.47
2018-08-08T04:45:44.186Z,9.40
2018-08-08T04:51:13.434Z,9.07
2018-08-08T04:56:43.753Z,8.50
2018-08-08T05:02:13.068Z,8.90
2018-08-08T05:07:42.432Z,8.00
2018-08-08T05:13:11.740Z,7.73
2018-08-08T05:18:41.035Z,7.20
2018-08-08T05:24:10.412Z,7.13
2018-08-08T05:29:39.674Z,8.07
2018-08-08T05:35:09.223Z,8.30
2018-08-08T05:40:39.615Z,7.13
2018-08-08T05:46:08.913Z,7.40
2018-08-08T05:51:38.233Z,7.00
2018-08-08T05:57:07.748Z,7.57
2018-08-08T06:02:36.935Z,6.80
2018-08-08T06:08:06.654Z,6.70
2018-08-08T06:13:36.060Z,6.33
2018-08-08T06:19:05.355Z,6.20
2018-08-08T06:24:35.233Z,5.70
2018-08-08T06:30:07.718Z,5.70
2018-08-08T06:35:37.095Z,5.93
2018-08-08T06:41:06.637Z,4.73
2018-08-08T06:46:35.908Z,5.53
2018-08-08T06:52:09.187Z,4.80
2018-08-08T06:57:38.468Z,5.13
2018-08-08T07:03:07.915Z,4.77
2018-08-08T07:08:37.176Z,4.50
2018-08-08T07:14:06.635Z,4.93
2018-08-08T07:19:35.925Z,4.93
2018-08-08T07:25:06.489Z,4.13
2018-08-08T07:30:35.911Z,4.70
2018-08-08T07:36:08.326Z,6.40
2018-08-08T07:41:38.196Z,5.17
2018-08-08T07:47:07.945Z,5.47
2018-08-08T07:52:37.188Z,5.03
2018-08-08T07:58:06.657Z,5.10
2018-08-08T08:03:35.920Z,5.90
2018-08-08T08:09:07.770Z,6.13
2018-08-08T08:14:37.027Z,6.40
2018-08-08T08:20:10.313Z,6.63
2018-08-08T08:25:40.324Z,7.07
2018-08-08T08:31:09.516Z,6.60
2018-08-08T08:36:38.739Z,6.10
2018-08-08T08:42:08.140Z,6.10
2018-08-08T08:47:38.878Z,6.43
2018-08-08T08:53:09.096Z,6.90
2018-08-08T08:58:38.472Z,7.10
2018-08-08T09:04:08.911Z,6.67
2018-08-08T09:09:39.327Z,6.77
2018-08-08T09:15:11.210Z,6.90
2018-08-08T09:20:40.878Z,5.97
2018-08-08T09:26:10.466Z,5.97
2018-08-08T09:31:39.759Z,5.53
2018-08-08T09:37:08.953Z,5.90
2018-08-08T09:42:38.327Z,5.37
2018-08-08T09:48:07.630Z,5.90
2018-08-08T09:53:37.995Z,5.23
2018-08-08T09:59:07.319Z,5.40
2018-08-08T10:04:37.428Z,4.73
2018-08-08T10:10:06.663Z,4.43
2018-08-08T10:15:35.990Z,4.70
2018-08-08T10:21:05.272Z,5.00
2018-08-08T10:26:34.534Z,6.03
2018-08-08T10:32:04.358Z,5.30
2018-08-08T10:37:33.722Z,5.43
2018-08-08T10:43:04.065Z,5.63
2018-08-08T10:48:33.275Z,6.30
2018-08-08T10:54:02.523Z,6.00
2018-08-08T10:59:31.772Z,6.07
2018-08-08T11:05:00.983Z,5.80
2018-08-08T11:10:30.433Z,5.47
2018-08-08T11:15:59.763Z,5.27
2018-08-08T11:21:29.063Z,5.07
2018-08-08T11:26:58.654Z,4.87
2018-08-08T11:32:27.955Z,5.50
2018-08-08T11:37:57.264Z,6.33
2018-08-08T11:43:27.592Z,5.07
2018-08-08T11:48:56.847Z,5.13
2018-08-08T11:54:26.165Z,5.07
2018-08-08T11:59:56.446Z,5.50
2018-08-08T12:05:25.795Z,4.90
2018-08-08T12:10:55.091Z,4.97
2018-08-08T12:16:24.382Z,4.53
2018-08-08T12:21:53.709Z,5.13
2018-08-08T12:27:23.068Z,5.00
2018-08-08T12:32:52.467Z,4.60
2018-08-08T12:38:21.756Z,4.50
2018-08-08T12:43:51.156Z,5.20
2018-08-08T12:49:21.289Z,4.70
2018-08-08T12:54:50.692Z,4.47
2018-08-08T13:00:20.234Z,5.00
2018-08-08T13:05:49.460Z,5.30
2018-08-08T13:11:19.367Z,5.27
2018-08-08T13:16:48.884Z,4.87
2018-08-08T13:22:18.120Z,4.90
2018-08-08T13:27:47.335Z,4.00
2018-08-08T13:33:16.824Z,5.00
2018-08-08T13:38:46.189Z,4.78
2018-08-08T13:44:15.400Z,4.80
2018-08-08T13:49:44.710Z,4.97
2018-08-08T13:55:15.105Z,4.97
2018-08-08T14:00:44.318Z,4.27
2018-08-08T14:06:13.515Z,4.37
2018-08-08T14:11:42.856Z,4.33
2018-08-08T14:17:12.053Z,4.00
2018-08-08T14:22:41.452Z,4.13
2018-08-08T14:28:10.667Z,3.60
2018-08-08T14:33:39.900Z,4.13
2018-08-08T14:39:11.325Z,3.47
2018-08-08T14:44:40.636Z,3.27
2018-08-08T14:50:10.169Z,3.70
2018-08-08T14:55:39.383Z,3.20
2018-08-08T15:01:09.776Z,3.40
2018-08-08T15:06:38.963Z,3.27
2018-08-08T15:12:08.204Z,3.60
2018-08-08T15:17:37.616Z,3.60
2018-08-08T15:23:07.002Z,3.13
2018-08-08T15:28:36.340Z,3.40
2018-08-08T15:34:05.925Z,3.70
2018-08-08T15:39:35.149Z,3.70
2018-08-08T15:45:05.763Z,3.47
2018-08-08T15:50:34.978Z,3.60
2018-08-08T15:56:06.297Z,3.50
2018-08-08T16:01:35.518Z,3.80
2018-08-08T16:07:04.803Z,3.67
2018-08-08T16:12:34.034Z,3.10
2018-08-08T16:18:03.320Z,3.50
2018-08-08T16:23:32.547Z,3.87
2018-08-08T16:29:01.764Z,4.10
2018-08-08T16:34:31.458Z,3.80
2018-08-08T16:40:00.672Z,4.50
2018-08-08T16:45:29.959Z,3.80
2018-08-08T16:50:59.223Z,3.87
2018-08-08T16:56:28.560Z,4.27
2018-08-08T17:01:57.859Z,3.93
2018-08-08T17:07:27.196Z,4.37
2018-08-08T17:14:21.853Z,4.30
2018-08-08T17:19:51.400Z,4.83
2018-08-08T17:25:21.803Z,5.23
2018-08-08T17:30:51.149Z,4.57
2018-08-08T17:36:20.482Z,4.70
2018-08-08T17:41:49.812Z,4.03
2018-08-08T17:47:19.117Z,4.80
2018-08-08T17:52:48.375Z,4.57
2018-08-08T17:58:18.779Z,4.33
2018-08-08T18:03:48.123Z,4.23
2018-08-08T18:09:18.717Z,4.40
2018-08-08T18:14:47.936Z,4.27
2018-08-08T18:20:17.296Z,5.33
2018-08-08T18:25:46.619Z,4.20
2018-08-08T18:31:15.923Z,3.93
2018-08-08T18:36:45.180Z,4.13
2018-08-08T18:42:15.520Z,3.97
2018-08-08T18:47:44.811Z,4.70
2018-08-08T18:53:14.066Z,4.20
2018-08-08T18:58:43.388Z,4.00
2018-08-08T19:04:12.599Z,4.80
2018-08-08T19:09:41.928Z,4.37
2018-08-08T19:15:11.219Z,5.23
2018-08-08T19:20:40.461Z,5.80
2018-08-08T19:26:10.100Z,6.50
2018-08-08T19:31:39.391Z,5.30
2018-08-08T19:37:08.756Z,5.37
2018-08-08T19:42:38.106Z,5.50
2018-08-08T19:48:07.486Z,5.70
2018-08-08T19:53:36.791Z,4.10
2018-08-08T19:59:06.171Z,10.10
2018-08-08T20:04:35.443Z,3.90
2018-08-08T20:10:04.867Z,4.50
2018-08-08T20:15:34.335Z,3.77
2018-08-08T20:21:04.219Z,3.97
2018-08-08T20:26:33.525Z,4.40
2018-08-08T20:32:02.805Z,4.10
2018-08-08T20:37:32.146Z,3.50
2018-08-08T20:43:01.864Z,5.50
2018-08-08T20:48:31.144Z,4.10
2018-08-08T20:54:00.463Z,3.90
2018-08-08T20:59:29.787Z,3.70
2018-08-08T21:04:59.111Z,3.90
2018-08-08T21:10:28.534Z,4.13
2018-08-08T21:15:58.142Z,3.67
2018-08-08T21:21:27.788Z,4.33
2018-08-08T21:26:57.425Z,4.50
2018-08-08T21:32:26.687Z,4.03
2018-08-08T21:37:56.232Z,4.10
2018-08-08T21:43:25.728Z,3.90
2018-08-08T21:48:55.192Z,4.50
2018-08-08T21:54:41.413Z,4.37
2018-08-08T22:00:29.006Z,3.52
2018-08-08T22:06:15.257Z,4.37
2018-08-08T22:12:01.459Z,4.17
2018-08-08T22:17:47.841Z,3.73
2018-08-08T22:23:17.035Z,3.60
2018-08-08T22:28:46.420Z,4.17
2018-08-08T22:34:15.675Z,3.90
2018-08-08T22:39:44.974Z,4.53
2018-08-08T22:45:14.266Z,4.63
2018-08-08T22:50:43.690Z,12.90
2018-08-08T22:56:12.978Z,6.28
2018-08-08T23:01:42.217Z,4.58
2018-08-08T23:07:11.517Z,4.40
2018-08-08T23:12:40.804Z,4.10
2018-08-08T23:18:10.054Z,4.20
2018-08-08T23:23:39.324Z,4.77
2018-08-08T23:29:08.638Z,3.77
2018-08-08T23:34:37.847Z,4.50
2018-08-08T23:40:07.168Z,5.10
2018-08-08T23:45:36.408Z,4.07
2018-08-08T23:51:05.667Z,4.20
2018-08-08T23:56:34.844Z,4.03
